sensor_id;sensor_type;location;lat;lon;timestamp;P1;durP1;ratioP1;P2;durP2;ratioP2
69573;SDS011;62840;52.366;5.980;2024-01-07T00:01:31;12.80;;;6.18;;
69573;SDS011;62840;52.366;5.980;2024-01-07T00:03:57;14.50;;;6.53;;
69573;SDS011;62840;52.366;5.980;2024-01-07T00:06:23;13.35;;;7.03;;
69573;SDS011;62840;52.366;5.980;2024-01-07T00:08:49;13.98;;;6.18;;
69573;SDS011;62840;52.366;5.980;2024-01-07T00:11:15;14.23;;;6.20;;
69573;SDS011;62840;52.366;5.980;2024-01-07T00:13:44;12.85;;;6.38;;
69573;SDS011;62840;52.366;5.980;2024-01-07T00:16:11;15.57;;;7.40;;
69573;SDS011;62840;52.366;5.980;2024-01-07T00:18:37;15.05;;;6.82;;
69573;SDS011;62840;52.366;5.980;2024-01-07T00:21:03;14.07;;;6.30;;
69573;SDS011;62840;52.366;5.980;2024-01-07T00:23:29;12.85;;;6.57;;
69573;SDS011;62840;52.366;5.980;2024-01-07T00:25:55;14.63;;;6.28;;
69573;SDS011;62840;52.366;5.980;2024-01-07T00:28:21;15.20;;;6.37;;
69573;SDS011;62840;52.366;5.980;2024-01-07T00:30:49;14.65;;;6.50;;
69573;SDS011;62840;52.366;5.980;2024-01-07T00:33:15;13.50;;;5.65;;
69573;SDS011;62840;52.366;5.980;2024-01-07T00:35:41;14.10;;;6.33;;
69573;SDS011;62840;52.366;5.980;2024-01-07T00:38:07;16.65;;;6.38;;
69573;SDS011;62840;52.366;5.980;2024-01-07T00:40:33;15.07;;;6.95;;
69573;SDS011;62840;52.366;5.980;2024-01-07T00:42:59;14.48;;;6.72;;
69573;SDS011;62840;52.366;5.980;2024-01-07T00:45:25;14.95;;;6.78;;
69573;SDS011;62840;52.366;5.980;2024-01-07T00:47:54;12.43;;;5.93;;
69573;SDS011;62840;52.366;5.980;2024-01-07T00:50:20;12.13;;;6.28;;
69573;SDS011;62840;52.366;5.980;2024-01-07T00:52:45;15.20;;;7.50;;
69573;SDS011;62840;52.366;5.980;2024-01-07T00:55:11;13.50;;;6.20;;
69573;SDS011;62840;52.366;5.980;2024-01-07T00:57:37;15.70;;;6.78;;
69573;SDS011;62840;52.366;5.980;2024-01-07T01:00:04;14.45;;;6.00;;
69573;SDS011;62840;52.366;5.980;2024-01-07T01:02:32;14.93;;;7.20;;
69573;SDS011;62840;52.366;5.980;2024-01-07T01:05:00;13.77;;;6.47;;
69573;SDS011;62840;52.366;5.980;2024-01-07T01:07:26;13.70;;;6.80;;
69573;SDS011;62840;52.366;5.980;2024-01-07T01:09:52;13.98;;;6.15;;
69573;SDS011;62840;52.366;5.980;2024-01-07T01:12:18;14.23;;;7.23;;
69573;SDS011;62840;52.366;5.980;2024-01-07T01:14:44;14.60;;;6.47;;
69573;SDS011;62840;52.366;5.980;2024-01-07T01:17:10;15.85;;;7.43;;
69573;SDS011;62840;52.366;5.980;2024-01-07T01:19:36;13.57;;;6.23;;
69573;SDS011;62840;52.366;5.980;2024-01-07T01:22:04;14.73;;;6.78;;
69573;SDS011;62840;52.366;5.980;2024-01-07T01:24:30;13.68;;;6.97;;
69573;SDS011;62840;52.366;5.980;2024-01-07T01:26:56;12.93;;;6.33;;
69573;SDS011;62840;52.366;5.980;2024-01-07T01:29:22;14.80;;;6.70;;
69573;SDS011;62840;52.366;5.980;2024-01-07T01:31:47;12.70;;;6.60;;
69573;SDS011;62840;52.366;5.980;2024-01-07T01:34:13;13.70;;;5.82;;
69573;SDS011;62840;52.366;5.980;2024-01-07T01:36:39;13.60;;;6.82;;
69573;SDS011;62840;52.366;5.980;2024-01-07T01:39:08;15.67;;;7.27;;
69573;SDS011;62840;52.366;5.980;2024-01-07T01:41:33;14.18;;;6.30;;
69573;SDS011;62840;52.366;5.980;2024-01-07T01:44:00;14.02;;;6.63;;
69573;SDS011;62840;52.366;5.980;2024-01-07T01:46:26;13.90;;;5.80;;
69573;SDS011;62840;52.366;5.980;2024-01-07T01:48:54;12.85;;;6.28;;
69573;SDS011;62840;52.366;5.980;2024-01-07T01:51:21;14.35;;;6.32;;
69573;SDS011;62840;52.366;5.980;2024-01-07T01:53:48;13.15;;;6.13;;
69573;SDS011;62840;52.366;5.980;2024-01-07T01:56:19;12.70;;;6.55;;
69573;SDS011;62840;52.366;5.980;2024-01-07T01:58:45;13.90;;;6.03;;
69573;SDS011;62840;52.366;5.980;2024-01-07T02:01:11;14.40;;;6.53;;
69573;SDS011;62840;52.366;5.980;2024-01-07T02:03:40;13.68;;;6.68;;
69573;SDS011;62840;52.366;5.980;2024-01-07T02:06:06;14.07;;;6.70;;
69573;SDS011;62840;52.366;5.980;2024-01-07T02:08:32;16.48;;;7.07;;
69573;SDS011;62840;52.366;5.980;2024-01-07T02:10:58;13.65;;;6.53;;
69573;SDS011;62840;52.366;5.980;2024-01-07T02:13:42;14.18;;;7.07;;
69573;SDS011;62840;52.366;5.980;2024-01-07T02:16:08;14.50;;;6.57;;
69573;SDS011;62840;52.366;5.980;2024-01-07T02:18:34;13.57;;;6.17;;
69573;SDS011;62840;52.366;5.980;2024-01-07T02:21:00;14.20;;;7.13;;
69573;SDS011;62840;52.366;5.980;2024-01-07T02:23:26;14.13;;;6.68;;
69573;SDS011;62840;52.366;5.980;2024-01-07T02:25:54;15.00;;;6.40;;
69573;SDS011;62840;52.366;5.980;2024-01-07T02:28:20;15.25;;;6.75;;
69573;SDS011;62840;52.366;5.980;2024-01-07T02:30:46;15.38;;;6.70;;
69573;SDS011;62840;52.366;5.980;2024-01-07T02:33:12;15.68;;;7.00;;
69573;SDS011;62840;52.366;5.980;2024-01-07T02:35:38;14.00;;;6.07;;
69573;SDS011;62840;52.366;5.980;2024-01-07T02:38:04;13.20;;;6.63;;
69573;SDS011;62840;52.366;5.980;2024-01-07T02:40:29;17.00;;;7.07;;
69573;SDS011;62840;52.366;5.980;2024-01-07T02:42:58;12.77;;;6.03;;
69573;SDS011;62840;52.366;5.980;2024-01-07T02:45:24;15.80;;;7.00;;
69573;SDS011;62840;52.366;5.980;2024-01-07T02:47:50;15.50;;;7.23;;
69573;SDS011;62840;52.366;5.980;2024-01-07T02:50:16;14.55;;;6.75;;
69573;SDS011;62840;52.366;5.980;2024-01-07T02:52:42;14.95;;;6.70;;
69573;SDS011;62840;52.366;5.980;2024-01-07T02:55:08;15.80;;;6.80;;
69573;SDS011;62840;52.366;5.980;2024-01-07T02:57:34;15.57;;;6.90;;
69573;SDS011;62840;52.366;5.980;2024-01-07T03:00:03;17.20;;;6.57;;
69573;SDS011;62840;52.366;5.980;2024-01-07T03:02:31;15.55;;;6.63;;
69573;SDS011;62840;52.366;5.980;2024-01-07T03:04:56;13.38;;;6.00;;
69573;SDS011;62840;52.366;5.980;2024-01-07T03:07:22;13.93;;;6.50;;
69573;SDS011;62840;52.366;5.980;2024-01-07T03:09:48;15.07;;;5.50;;
69573;SDS011;62840;52.366;5.980;2024-01-07T03:12:14;13.15;;;5.72;;
69573;SDS011;62840;52.366;5.980;2024-01-07T03:14:40;11.80;;;6.03;;
69573;SDS011;62840;52.366;5.980;2024-01-07T03:17:09;13.27;;;6.03;;
69573;SDS011;62840;52.366;5.980;2024-01-07T03:19:35;14.27;;;6.22;;
69573;SDS011;62840;52.366;5.980;2024-01-07T03:22:03;13.65;;;6.07;;
69573;SDS011;62840;52.366;5.980;2024-01-07T03:24:29;13.38;;;6.15;;
69573;SDS011;62840;52.366;5.980;2024-01-07T03:26:55;11.70;;;5.77;;
69573;SDS011;62840;52.366;5.980;2024-01-07T03:29:21;10.05;;;5.57;;
69573;SDS011;62840;52.366;5.980;2024-01-07T03:31:47;12.57;;;5.67;;
69573;SDS011;62840;52.366;5.980;2024-01-07T03:34:15;12.57;;;6.03;;
69573;SDS011;62840;52.366;5.980;2024-01-07T03:36:41;10.02;;;5.20;;
69573;SDS011;62840;52.366;5.980;2024-01-07T03:39:07;9.43;;;4.80;;
69573;SDS011;62840;52.366;5.980;2024-01-07T03:41:33;13.13;;;5.20;;
69573;SDS011;62840;52.366;5.980;2024-01-07T03:43:59;10.02;;;4.70;;
69573;SDS011;62840;52.366;5.980;2024-01-07T03:46:25;10.63;;;5.37;;
69573;SDS011;62840;52.366;5.980;2024-01-07T03:48:50;11.07;;;5.13;;
69573;SDS011;62840;52.366;5.980;2024-01-07T03:51:19;11.30;;;5.15;;
69573;SDS011;62840;52.366;5.980;2024-01-07T03:53:45;9.97;;;4.50;;
69573;SDS011;62840;52.366;5.980;2024-01-07T03:56:11;10.48;;;4.80;;
69573;SDS011;62840;52.366;5.980;2024-01-07T03:58:36;10.65;;;4.82;;
69573;SDS011;62840;52.366;5.980;2024-01-07T04:01:02;10.90;;;5.10;;
69573;SDS011;62840;52.366;5.980;2024-01-07T04:03:28;11.57;;;5.53;;
69573;SDS011;62840;52.366;5.980;2024-01-07T04:05:54;10.13;;;4.97;;
69573;SDS011;62840;52.366;5.980;2024-01-07T04:08:23;10.20;;;4.90;;
69573;SDS011;62840;52.366;5.980;2024-01-07T04:10:49;11.23;;;5.10;;
69573;SDS011;62840;52.366;5.980;2024-01-07T04:13:15;12.00;;;4.95;;
69573;SDS011;62840;52.366;5.980;2024-01-07T04:15:41;11.27;;;4.80;;
69573;SDS011;62840;52.366;5.980;2024-01-07T04:18:06;10.75;;;5.50;;
69573;SDS011;62840;52.366;5.980;2024-01-07T04:20:32;11.32;;;4.90;;
69573;SDS011;62840;52.366;5.980;2024-01-07T04:22:58;11.80;;;4.77;;
69573;SDS011;62840;52.366;5.980;2024-01-07T04:25:27;11.40;;;5.38;;
69573;SDS011;62840;52.366;5.980;2024-01-07T04:27:52;11.32;;;4.93;;
69573;SDS011;62840;52.366;5.980;2024-01-07T04:30:18;9.47;;;4.67;;
69573;SDS011;62840;52.366;5.980;2024-01-07T04:32:44;9.88;;;5.18;;
69573;SDS011;62840;52.366;5.980;2024-01-07T04:35:10;9.75;;;4.95;;
69573;SDS011;62840;52.366;5.980;2024-01-07T04:37:36;10.63;;;5.13;;
69573;SDS011;62840;52.366;5.980;2024-01-07T04:40:03;9.23;;;4.63;;
69573;SDS011;62840;52.366;5.980;2024-01-07T04:42:33;12.02;;;5.68;;
69573;SDS011;62840;52.366;5.980;2024-01-07T04:44:59;10.13;;;4.88;;
69573;SDS011;62840;52.366;5.980;2024-01-07T04:47:26;10.23;;;5.27;;
69573;SDS011;62840;52.366;5.980;2024-01-07T04:49:53;8.90;;;4.43;;
69573;SDS011;62840;52.366;5.980;2024-01-07T04:52:19;10.20;;;4.75;;
69573;SDS011;62840;52.366;5.980;2024-01-07T04:54:46;12.07;;;5.37;;
69573;SDS011;62840;52.366;5.980;2024-01-07T04:57:12;10.65;;;5.10;;
69573;SDS011;62840;52.366;5.980;2024-01-07T04:59:40;11.90;;;5.10;;
69573;SDS011;62840;52.366;5.980;2024-01-07T05:02:06;10.17;;;5.43;;
69573;SDS011;62840;52.366;5.980;2024-01-07T05:04:32;10.93;;;5.18;;
69573;SDS011;62840;52.366;5.980;2024-01-07T05:06:58;11.25;;;5.60;;
69573;SDS011;62840;52.366;5.980;2024-01-07T05:09:24;9.97;;;5.33;;
69573;SDS011;62840;52.366;5.980;2024-01-07T05:11:50;10.30;;;5.07;;
69573;SDS011;62840;52.366;5.980;2024-01-07T05:14:15;10.10;;;4.72;;
69573;SDS011;62840;52.366;5.980;2024-01-07T05:16:44;11.67;;;5.03;;
69573;SDS011;62840;52.366;5.980;2024-01-07T05:19:10;10.25;;;4.97;;
69573;SDS011;62840;52.366;5.980;2024-01-07T05:21:36;12.32;;;5.47;;
69573;SDS011;62840;52.366;5.980;2024-01-07T05:24:01;10.23;;;4.67;;
69573;SDS011;62840;52.366;5.980;2024-01-07T05:26:28;9.65;;;4.82;;
69573;SDS011;62840;52.366;5.980;2024-01-07T05:28:53;9.20;;;4.88;;
69573;SDS011;62840;52.366;5.980;2024-01-07T05:31:19;9.80;;;5.00;;
69573;SDS011;62840;52.366;5.980;2024-01-07T05:33:49;10.75;;;4.82;;
69573;SDS011;62840;52.366;5.980;2024-01-07T05:36:15;8.40;;;4.63;;
69573;SDS011;62840;52.366;5.980;2024-01-07T05:38:41;9.45;;;5.35;;
69573;SDS011;62840;52.366;5.980;2024-01-07T05:41:07;9.77;;;5.37;;
69573;SDS011;62840;52.366;5.980;2024-01-07T05:43:34;10.60;;;5.60;;
69573;SDS011;62840;52.366;5.980;2024-01-07T05:46:01;11.77;;;4.97;;
69573;SDS011;62840;52.366;5.980;2024-01-07T05:48:27;10.23;;;5.07;;
69573;SDS011;62840;52.366;5.980;2024-01-07T05:50:55;10.63;;;5.37;;
69573;SDS011;62840;52.366;5.980;2024-01-07T05:53:21;9.93;;;5.03;;
69573;SDS011;62840;52.366;5.980;2024-01-07T05:55:47;9.43;;;4.93;;
69573;SDS011;62840;52.366;5.980;2024-01-07T05:58:13;9.10;;;4.77;;
69573;SDS011;62840;52.366;5.980;2024-01-07T06:00:39;12.82;;;5.40;;
69573;SDS011;62840;52.366;5.980;2024-01-07T06:03:05;10.23;;;4.73;;
69573;SDS011;62840;52.366;5.980;2024-01-07T06:05:30;11.93;;;5.00;;
69573;SDS011;62840;52.366;5.980;2024-01-07T06:07:59;11.73;;;5.47;;
69573;SDS011;62840;52.366;5.980;2024-01-07T06:10:25;9.18;;;4.93;;
69573;SDS011;62840;52.366;5.980;2024-01-07T06:12:51;9.73;;;5.33;;
69573;SDS011;62840;52.366;5.980;2024-01-07T06:15:17;13.40;;;5.90;;
69573;SDS011;62840;52.366;5.980;2024-01-07T06:17:42;10.07;;;4.43;;
69573;SDS011;62840;52.366;5.980;2024-01-07T06:20:09;11.13;;;5.35;;
69573;SDS011;62840;52.366;5.980;2024-01-07T06:22:36;10.20;;;5.25;;
69573;SDS011;62840;52.366;5.980;2024-01-07T06:25:05;11.70;;;5.23;;
69573;SDS011;62840;52.366;5.980;2024-01-07T06:27:32;11.43;;;5.25;;
69573;SDS011;62840;52.366;5.980;2024-01-07T06:29:58;11.45;;;4.93;;
69573;SDS011;62840;52.366;5.980;2024-01-07T06:32:23;11.48;;;5.03;;
69573;SDS011;62840;52.366;5.980;2024-01-07T06:34:49;11.38;;;4.85;;
69573;SDS011;62840;52.366;5.980;2024-01-07T06:37:15;10.80;;;5.47;;
69573;SDS011;62840;52.366;5.980;2024-01-07T06:39:41;11.77;;;5.33;;
69573;SDS011;62840;52.366;5.980;2024-01-07T06:42:09;10.65;;;5.00;;
69573;SDS011;62840;52.366;5.980;2024-01-07T06:44:35;10.10;;;5.27;;
69573;SDS011;62840;52.366;5.980;2024-01-07T06:47:01;9.03;;;4.90;;
69573;SDS011;62840;52.366;5.980;2024-01-07T06:49:27;9.82;;;4.70;;
69573;SDS011;62840;52.366;5.980;2024-01-07T06:51:53;9.52;;;4.63;;
69573;SDS011;62840;52.366;5.980;2024-01-07T06:54:19;8.00;;;4.20;;
69573;SDS011;62840;52.366;5.980;2024-01-07T06:56:45;9.30;;;4.72;;
69573;SDS011;62840;52.366;5.980;2024-01-07T06:59:13;8.95;;;4.72;;
69573;SDS011;62840;52.366;5.980;2024-01-07T07:01:39;8.57;;;4.93;;
69573;SDS011;62840;52.366;5.980;2024-01-07T07:04:05;9.43;;;4.90;;
69573;SDS011;62840;52.366;5.980;2024-01-07T07:06:31;9.75;;;4.78;;
69573;SDS011;62840;52.366;5.980;2024-01-07T07:08:57;10.03;;;4.73;;
69573;SDS011;62840;52.366;5.980;2024-01-07T07:11:23;10.23;;;5.25;;
69573;SDS011;62840;52.366;5.980;2024-01-07T07:13:49;10.02;;;5.25;;
69573;SDS011;62840;52.366;5.980;2024-01-07T07:16:17;9.57;;;4.90;;
69573;SDS011;62840;52.366;5.980;2024-01-07T07:18:43;9.98;;;4.88;;
69573;SDS011;62840;52.366;5.980;2024-01-07T07:21:09;10.55;;;5.20;;
69573;SDS011;62840;52.366;5.980;2024-01-07T07:23:35;10.90;;;4.87;;
69573;SDS011;62840;52.366;5.980;2024-01-07T07:26:00;9.52;;;4.95;;
69573;SDS011;62840;52.366;5.980;2024-01-07T07:28:26;10.02;;;4.70;;
69573;SDS011;62840;52.366;5.980;2024-01-07T07:30:52;11.82;;;4.78;;
69573;SDS011;62840;52.366;5.980;2024-01-07T07:33:21;8.52;;;4.38;;
69573;SDS011;62840;52.366;5.980;2024-01-07T07:35:47;8.50;;;4.47;;
69573;SDS011;62840;52.366;5.980;2024-01-07T07:38:12;9.17;;;4.63;;
69573;SDS011;62840;52.366;5.980;2024-01-07T07:40:38;7.72;;;3.85;;
69573;SDS011;62840;52.366;5.980;2024-01-07T07:43:04;8.38;;;3.92;;
69573;SDS011;62840;52.366;5.980;2024-01-07T07:45:30;8.05;;;4.03;;
69573;SDS011;62840;52.366;5.980;2024-01-07T07:47:56;8.07;;;3.53;;
69573;SDS011;62840;52.366;5.980;2024-01-07T07:50:24;8.53;;;3.87;;
69573;SDS011;62840;52.366;5.980;2024-01-07T07:52:50;9.15;;;3.78;;
69573;SDS011;62840;52.366;5.980;2024-01-07T07:55:16;7.65;;;3.67;;
69573;SDS011;62840;52.366;5.980;2024-01-07T07:57:42;9.43;;;4.05;;
69573;SDS011;62840;52.366;5.980;2024-01-07T08:00:08;8.73;;;3.83;;
69573;SDS011;62840;52.366;5.980;2024-01-07T08:02:35;8.50;;;4.28;;
69573;SDS011;62840;52.366;5.980;2024-01-07T08:05:00;8.40;;;4.22;;
69573;SDS011;62840;52.366;5.980;2024-01-07T08:07:29;9.90;;;4.13;;
69573;SDS011;62840;52.366;5.980;2024-01-07T08:09:55;9.27;;;4.30;;
69573;SDS011;62840;52.366;5.980;2024-01-07T08:12:21;7.53;;;4.05;;
69573;SDS011;62840;52.366;5.980;2024-01-07T08:14:47;9.47;;;4.03;;
69573;SDS011;62840;52.366;5.980;2024-01-07T08:17:13;8.43;;;3.38;;
69573;SDS011;62840;52.366;5.980;2024-01-07T08:19:39;5.82;;;2.75;;
69573;SDS011;62840;52.366;5.980;2024-01-07T08:22:05;7.90;;;3.40;;
69573;SDS011;62840;52.366;5.980;2024-01-07T08:24:33;6.90;;;3.58;;
69573;SDS011;62840;52.366;5.980;2024-01-07T08:26:59;8.95;;;3.13;;
69573;SDS011;62840;52.366;5.980;2024-01-07T08:29:25;6.60;;;3.33;;
69573;SDS011;62840;52.366;5.980;2024-01-07T08:31:51;6.50;;;2.88;;
69573;SDS011;62840;52.366;5.980;2024-01-07T08:34:16;6.05;;;2.67;;
69573;SDS011;62840;52.366;5.980;2024-01-07T08:36:42;5.90;;;2.20;;
69573;SDS011;62840;52.366;5.980;2024-01-07T08:39:08;6.18;;;2.85;;
69573;SDS011;62840;52.366;5.980;2024-01-07T08:41:37;5.55;;;2.35;;
69573;SDS011;62840;52.366;5.980;2024-01-07T08:44:03;6.20;;;2.83;;
69573;SDS011;62840;52.366;5.980;2024-01-07T08:46:29;6.03;;;2.70;;
69573;SDS011;62840;52.366;5.980;2024-01-07T08:48:54;5.72;;;2.50;;
69573;SDS011;62840;52.366;5.980;2024-01-07T08:51:20;6.87;;;2.37;;
69573;SDS011;62840;52.366;5.980;2024-01-07T08:53:46;5.43;;;2.40;;
69573;SDS011;62840;52.366;5.980;2024-01-07T08:56:12;6.47;;;2.38;;
69573;SDS011;62840;52.366;5.980;2024-01-07T08:58:40;5.87;;;2.10;;
69573;SDS011;62840;52.366;5.980;2024-01-07T09:01:06;4.50;;;2.10;;
69573;SDS011;62840;52.366;5.980;2024-01-07T09:03:32;4.82;;;2.00;;
69573;SDS011;62840;52.366;5.980;2024-01-07T09:05:58;4.75;;;2.17;;
69573;SDS011;62840;52.366;5.980;2024-01-07T09:08:24;5.60;;;2.20;;
69573;SDS011;62840;52.366;5.980;2024-01-07T09:10:50;5.65;;;1.95;;
69573;SDS011;62840;52.366;5.980;2024-01-07T09:13:16;5.45;;;1.92;;
69573;SDS011;62840;52.366;5.980;2024-01-07T09:15:44;5.50;;;2.10;;
69573;SDS011;62840;52.366;5.980;2024-01-07T09:18:10;4.68;;;1.80;;
69573;SDS011;62840;52.366;5.980;2024-01-07T09:20:36;5.03;;;2.00;;
69573;SDS011;62840;52.366;5.980;2024-01-07T09:23:02;5.63;;;1.60;;
69573;SDS011;62840;52.366;5.980;2024-01-07T09:25:29;5.65;;;2.28;;
69573;SDS011;62840;52.366;5.980;2024-01-07T09:27:54;5.80;;;2.10;;
69573;SDS011;62840;52.366;5.980;2024-01-07T09:30:20;5.10;;;1.70;;
69573;SDS011;62840;52.366;5.980;2024-01-07T09:32:49;6.15;;;1.80;;
69573;SDS011;62840;52.366;5.980;2024-01-07T09:35:15;4.82;;;1.90;;
69573;SDS011;62840;52.366;5.980;2024-01-07T09:37:40;5.27;;;1.63;;
69573;SDS011;62840;52.366;5.980;2024-01-07T09:40:07;5.00;;;1.60;;
69573;SDS011;62840;52.366;5.980;2024-01-07T09:42:34;4.20;;;1.58;;
69573;SDS011;62840;52.366;5.980;2024-01-07T09:45:01;4.88;;;1.75;;
69573;SDS011;62840;52.366;5.980;2024-01-07T09:47:29;4.23;;;1.90;;
69573;SDS011;62840;52.366;5.980;2024-01-07T09:49:58;5.45;;;1.83;;
69573;SDS011;62840;52.366;5.980;2024-01-07T09:52:24;4.68;;;1.83;;
69573;SDS011;62840;52.366;5.980;2024-01-07T09:54:51;5.88;;;1.92;;
69573;SDS011;62840;52.366;5.980;2024-01-07T09:57:23;5.50;;;1.80;;
69573;SDS011;62840;52.366;5.980;2024-01-07T09:59:50;3.77;;;1.80;;
69573;SDS011;62840;52.366;5.980;2024-01-07T10:02:16;3.83;;;1.55;;
69573;SDS011;62840;52.366;5.980;2024-01-07T10:04:42;4.18;;;1.58;;
69573;SDS011;62840;52.366;5.980;2024-01-07T10:07:10;5.00;;;1.60;;
69573;SDS011;62840;52.366;5.980;2024-01-07T10:09:36;4.47;;;1.80;;
69573;SDS011;62840;52.366;5.980;2024-01-07T10:12:06;3.58;;;1.40;;
69573;SDS011;62840;52.366;5.980;2024-01-07T10:14:33;3.80;;;1.42;;
69573;SDS011;62840;52.366;5.980;2024-01-07T10:16:59;4.72;;;1.73;;
69573;SDS011;62840;52.366;5.980;2024-01-07T10:19:25;4.30;;;1.30;;
69573;SDS011;62840;52.366;5.980;2024-01-07T10:21:59;3.92;;;1.30;;
69573;SDS011;62840;52.366;5.980;2024-01-07T10:24:34;4.20;;;1.52;;
69573;SDS011;62840;52.366;5.980;2024-01-07T10:27:02;4.13;;;1.23;;
69573;SDS011;62840;52.366;5.980;2024-01-07T10:29:28;4.25;;;1.48;;
69573;SDS011;62840;52.366;5.980;2024-01-07T10:31:55;3.97;;;1.50;;
69573;SDS011;62840;52.366;5.980;2024-01-07T10:34:22;4.63;;;1.50;;
69573;SDS011;62840;52.366;5.980;2024-01-07T10:36:49;3.78;;;1.27;;
69573;SDS011;62840;52.366;5.980;2024-01-07T10:39:18;4.85;;;1.60;;
69573;SDS011;62840;52.366;5.980;2024-01-07T10:41:47;3.50;;;1.30;;
69573;SDS011;62840;52.366;5.980;2024-01-07T10:44:15;4.63;;;1.30;;
69573;SDS011;62840;52.366;5.980;2024-01-07T10:46:41;4.70;;;1.52;;
69573;SDS011;62840;52.366;5.980;2024-01-07T10:49:11;4.70;;;1.50;;
69573;SDS011;62840;52.366;5.980;2024-01-07T10:51:45;4.45;;;1.42;;
69573;SDS011;62840;52.366;5.980;2024-01-07T10:54:21;3.50;;;1.13;;
69573;SDS011;62840;52.366;5.980;2024-01-07T10:56:58;4.10;;;1.10;;
69573;SDS011;62840;52.366;5.980;2024-01-07T10:59:27;3.53;;;1.25;;
69573;SDS011;62840;52.366;5.980;2024-01-07T11:01:58;3.53;;;1.40;;
69573;SDS011;62840;52.366;5.980;2024-01-07T11:04:29;3.80;;;1.30;;
69573;SDS011;62840;52.366;5.980;2024-01-07T11:07:10;4.37;;;1.17;;
69573;SDS011;62840;52.366;5.980;2024-01-07T11:09:46;3.45;;;1.10;;
69573;SDS011;62840;52.366;5.980;2024-01-07T11:12:29;4.15;;;1.52;;
69573;SDS011;62840;52.366;5.980;2024-01-07T11:14:57;2.92;;;0.80;;
69573;SDS011;62840;52.366;5.980;2024-01-07T11:20:07;3.13;;;1.33;;
69573;SDS011;62840;52.366;5.980;2024-01-07T11:22:43;4.47;;;1.10;;
69573;SDS011;62840;52.366;5.980;2024-01-07T11:28:00;7.47;;;1.30;;
69573;SDS011;62840;52.366;5.980;2024-01-07T11:30:27;3.00;;;1.20;;
69573;SDS011;62840;52.366;5.980;2024-01-07T11:32:56;2.88;;;1.00;;
69573;SDS011;62840;52.366;5.980;2024-01-07T11:35:37;3.45;;;0.90;;
69573;SDS011;62840;52.366;5.980;2024-01-07T11:38:20;4.30;;;1.38;;
69573;SDS011;62840;52.366;5.980;2024-01-07T11:40:46;3.73;;;1.20;;
69573;SDS011;62840;52.366;5.980;2024-01-07T11:43:17;3.88;;;1.10;;
69573;SDS011;62840;52.366;5.980;2024-01-07T11:45:43;3.33;;;1.10;;
69573;SDS011;62840;52.366;5.980;2024-01-07T11:48:09;3.80;;;1.23;;
69573;SDS011;62840;52.366;5.980;2024-01-07T11:50:35;5.28;;;1.50;;
69573;SDS011;62840;52.366;5.980;2024-01-07T11:53:01;4.03;;;1.10;;
69573;SDS011;62840;52.366;5.980;2024-01-07T11:55:27;3.80;;;1.30;;
69573;SDS011;62840;52.366;5.980;2024-01-07T11:57:55;3.40;;;1.00;;
69573;SDS011;62840;52.366;5.980;2024-01-07T12:00:24;3.80;;;1.40;;
69573;SDS011;62840;52.366;5.980;2024-01-07T12:02:50;4.45;;;1.13;;
69573;SDS011;62840;52.366;5.980;2024-01-07T12:05:15;4.30;;;1.23;;
69573;SDS011;62840;52.366;5.980;2024-01-07T12:07:41;3.40;;;1.27;;
69573;SDS011;62840;52.366;5.980;2024-01-07T12:10:08;3.33;;;1.10;;
69573;SDS011;62840;52.366;5.980;2024-01-07T12:12:34;3.27;;;1.33;;
69573;SDS011;62840;52.366;5.980;2024-01-07T12:15:00;4.18;;;1.23;;
69573;SDS011;62840;52.366;5.980;2024-01-07T12:17:29;3.45;;;1.10;;
69573;SDS011;62840;52.366;5.980;2024-01-07T12:19:56;3.28;;;0.98;;
69573;SDS011;62840;52.366;5.980;2024-01-07T12:22:22;5.55;;;1.20;;
69573;SDS011;62840;52.366;5.980;2024-01-07T12:24:59;3.10;;;1.13;;
69573;SDS011;62840;52.366;5.980;2024-01-07T12:27:25;2.80;;;1.00;;
69573;SDS011;62840;52.366;5.980;2024-01-07T12:29:54;3.90;;;1.30;;
69573;SDS011;62840;52.366;5.980;2024-01-07T12:32:20;3.00;;;1.02;;
69573;SDS011;62840;52.366;5.980;2024-01-07T12:34:50;3.40;;;1.10;;
69573;SDS011;62840;52.366;5.980;2024-01-07T12:37:15;3.35;;;1.10;;
69573;SDS011;62840;52.366;5.980;2024-01-07T12:39:42;3.28;;;1.13;;
69573;SDS011;62840;52.366;5.980;2024-01-07T12:42:07;4.20;;;1.10;;
69573;SDS011;62840;52.366;5.980;2024-01-07T12:44:33;3.45;;;0.95;;
69573;SDS011;62840;52.366;5.980;2024-01-07T12:47:01;4.05;;;1.30;;
69573;SDS011;62840;52.366;5.980;2024-01-07T12:49:27;4.53;;;1.05;;
69573;SDS011;62840;52.366;5.980;2024-01-07T12:51:56;2.73;;;1.17;;
69573;SDS011;62840;52.366;5.980;2024-01-07T12:54:22;2.95;;;1.10;;
69573;SDS011;62840;52.366;5.980;2024-01-07T12:56:48;3.30;;;1.25;;
69573;SDS011;62840;52.366;5.980;2024-01-07T12:59:14;3.27;;;1.00;;
69573;SDS011;62840;52.366;5.980;2024-01-07T13:01:39;4.13;;;1.10;;
69573;SDS011;62840;52.366;5.980;2024-01-07T13:04:05;4.47;;;1.25;;
69573;SDS011;62840;52.366;5.980;2024-01-07T13:06:32;3.05;;;1.08;;
69573;SDS011;62840;52.366;5.980;2024-01-07T13:09:00;3.60;;;1.00;;
69573;SDS011;62840;52.366;5.980;2024-01-07T13:11:27;3.90;;;1.00;;
69573;SDS011;62840;52.366;5.980;2024-01-07T13:13:52;3.63;;;1.00;;
69573;SDS011;62840;52.366;5.980;2024-01-07T13:16:18;2.80;;;0.90;;
69573;SDS011;62840;52.366;5.980;2024-01-07T13:18:44;4.13;;;1.30;;
69573;SDS011;62840;52.366;5.980;2024-01-07T13:21:10;3.17;;;1.20;;
69573;SDS011;62840;52.366;5.980;2024-01-07T13:23:36;2.97;;;1.00;;
69573;SDS011;62840;52.366;5.980;2024-01-07T13:26:04;3.33;;;1.13;;
69573;SDS011;62840;52.366;5.980;2024-01-07T13:28:30;3.13;;;1.15;;
69573;SDS011;62840;52.366;5.980;2024-01-07T13:30:56;2.90;;;0.90;;
69573;SDS011;62840;52.366;5.980;2024-01-07T13:33:22;2.92;;;1.08;;
69573;SDS011;62840;52.366;5.980;2024-01-07T13:35:48;5.70;;;1.00;;
69573;SDS011;62840;52.366;5.980;2024-01-07T13:38:13;3.63;;;0.80;;
69573;SDS011;62840;52.366;5.980;2024-01-07T13:40:39;4.10;;;1.00;;
69573;SDS011;62840;52.366;5.980;2024-01-07T13:43:08;4.63;;;1.30;;
69573;SDS011;62840;52.366;5.980;2024-01-07T13:45:34;3.20;;;1.30;;
69573;SDS011;62840;52.366;5.980;2024-01-07T13:47:59;3.25;;;0.90;;
69573;SDS011;62840;52.366;5.980;2024-01-07T13:50:25;2.97;;;0.90;;
69573;SDS011;62840;52.366;5.980;2024-01-07T13:52:51;2.90;;;1.20;;
69573;SDS011;62840;52.366;5.980;2024-01-07T13:55:17;3.07;;;0.90;;
69573;SDS011;62840;52.366;5.980;2024-01-07T13:57:43;2.88;;;1.00;;
69573;SDS011;62840;52.366;5.980;2024-01-07T14:00:12;3.45;;;1.50;;
69573;SDS011;62840;52.366;5.980;2024-01-07T14:02:38;4.68;;;1.40;;
69573;SDS011;62840;52.366;5.980;2024-01-07T14:05:05;3.53;;;1.10;;
69573;SDS011;62840;52.366;5.980;2024-01-07T14:07:31;3.58;;;1.38;;
69573;SDS011;62840;52.366;5.980;2024-01-07T14:09:57;3.95;;;1.13;;
69573;SDS011;62840;52.366;5.980;2024-01-07T14:12:23;2.92;;;1.20;;
69573;SDS011;62840;52.366;5.980;2024-01-07T14:14:49;3.20;;;1.10;;
69573;SDS011;62840;52.366;5.980;2024-01-07T14:17:18;3.75;;;1.52;;
69573;SDS011;62840;52.366;5.980;2024-01-07T14:19:43;3.92;;;1.58;;
69573;SDS011;62840;52.366;5.980;2024-01-07T14:22:09;4.40;;;1.27;;
69573;SDS011;62840;52.366;5.980;2024-01-07T14:24:35;3.20;;;1.17;;
69573;SDS011;62840;52.366;5.980;2024-01-07T14:27:01;3.17;;;1.00;;
69573;SDS011;62840;52.366;5.980;2024-01-07T14:29:27;4.43;;;1.10;;
69573;SDS011;62840;52.366;5.980;2024-01-07T14:31:53;3.35;;;0.93;;
69573;SDS011;62840;52.366;5.980;2024-01-07T14:34:22;3.15;;;1.08;;
69573;SDS011;62840;52.366;5.980;2024-01-07T14:36:47;4.77;;;1.27;;
69573;SDS011;62840;52.366;5.980;2024-01-07T14:39:13;4.93;;;1.30;;
69573;SDS011;62840;52.366;5.980;2024-01-07T14:41:39;3.55;;;1.05;;
69573;SDS011;62840;52.366;5.980;2024-01-07T14:44:05;3.50;;;1.20;;
69573;SDS011;62840;52.366;5.980;2024-01-07T14:46:31;3.60;;;1.40;;